sensor_id;sensor_type;location;lat;lon;timestamp;P1;durP1;ratioP1;P2;durP2;ratioP2
70014;SDS011;57358;51.094;6.760;2022-09-12T00:01:12;9.05;;;8.25;;
70014;SDS011;57358;51.094;6.760;2022-09-12T00:03:39;7.57;;;6.97;;
70014;SDS011;57358;51.094;6.760;2022-09-12T00:06:10;7.72;;;7.22;;
70014;SDS011;57358;51.094;6.760;2022-09-12T00:08:38;8.98;;;6.57;;
70014;SDS011;57358;51.094;6.760;2022-09-12T00:11:06;10.07;;;9.18;;
70014;SDS011;57358;51.094;6.760;2022-09-12T00:13:35;8.30;;;7.60;;
70014;SDS011;57358;51.094;6.760;2022-09-12T00:16:07;10.95;;;9.27;;
70014;SDS011;57358;51.094;6.760;2022-09-12T00:18:40;8.13;;;7.43;;
70014;SDS011;57358;51.094;6.760;2022-09-12T00:21:06;9.32;;;8.55;;
70014;SDS011;57358;51.094;6.760;2022-09-12T00:23:33;8.63;;;7.53;;
70014;SDS011;57358;51.094;6.760;2022-09-12T00:26:03;9.13;;;8.23;;
70014;SDS011;57358;51.094;6.760;2022-09-12T00:28:32;8.90;;;8.10;;
70014;SDS011;57358;51.094;6.760;2022-09-12T00:31:02;11.07;;;7.55;;
70014;SDS011;57358;51.094;6.760;2022-09-12T00:33:34;9.27;;;8.43;;
70014;SDS011;57358;51.094;6.760;2022-09-12T00:36:04;9.65;;;7.65;;
70014;SDS011;57358;51.094;6.760;2022-09-12T00:38:33;8.98;;;7.35;;
70014;SDS011;57358;51.094;6.760;2022-09-12T00:41:04;7.65;;;7.13;;
70014;SDS011;57358;51.094;6.760;2022-09-12T00:43:40;9.65;;;8.82;;
70014;SDS011;57358;51.094;6.760;2022-09-12T00:48:58;11.00;;;8.32;;
70014;SDS011;57358;51.094;6.760;2022-09-12T00:51:26;13.02;;;10.68;;
70014;SDS011;57358;51.094;6.760;2022-09-12T00:53:56;11.57;;;9.18;;
70014;SDS011;57358;51.094;6.760;2022-09-12T00:56:25;12.10;;;10.88;;
70014;SDS011;57358;51.094;6.760;2022-09-12T00:58:54;11.85;;;9.85;;
70014;SDS011;57358;51.094;6.760;2022-09-12T01:01:26;15.07;;;10.23;;
70014;SDS011;57358;51.094;6.760;2022-09-12T01:03:57;12.45;;;9.13;;
70014;SDS011;57358;51.094;6.760;2022-09-12T01:06:26;16.92;;;9.52;;
70014;SDS011;57358;51.094;6.760;2022-09-12T01:08:55;9.05;;;8.15;;
70014;SDS011;57358;51.094;6.760;2022-09-12T01:11:22;10.68;;;9.48;;
70014;SDS011;57358;51.094;6.760;2022-09-12T01:13:49;10.40;;;9.45;;
70014;SDS011;57358;51.094;6.760;2022-09-12T01:16:16;11.32;;;9.85;;
70014;SDS011;57358;51.094;6.760;2022-09-12T01:19:02;9.48;;;8.57;;
70014;SDS011;57358;51.094;6.760;2022-09-12T01:21:51;9.40;;;8.38;;
70014;SDS011;57358;51.094;6.760;2022-09-12T01:24:32;9.23;;;8.43;;
70014;SDS011;57358;51.094;6.760;2022-09-12T01:32:54;9.00;;;8.07;;
70014;SDS011;57358;51.094;6.760;2022-09-12T01:38:17;11.50;;;10.35;;
70014;SDS011;57358;51.094;6.760;2022-09-12T01:41:17;12.07;;;9.70;;
70014;SDS011;57358;51.094;6.760;2022-09-12T01:43:53;12.60;;;10.02;;
70014;SDS011;57358;51.094;6.760;2022-09-12T01:46:29;10.45;;;9.48;;
70014;SDS011;57358;51.094;6.760;2022-09-12T01:49:06;17.70;;;9.30;;
70014;SDS011;57358;51.094;6.760;2022-09-12T01:51:35;10.45;;;9.38;;
70014;SDS011;57358;51.094;6.760;2022-09-12T01:54:08;12.05;;;11.00;;
70014;SDS011;57358;51.094;6.760;2022-09-12T01:56:38;10.75;;;9.38;;
70014;SDS011;57358;51.094;6.760;2022-09-12T01:59:16;16.20;;;11.60;;
70014;SDS011;57358;51.094;6.760;2022-09-12T02:01:48;13.10;;;10.55;;
70014;SDS011;57358;51.094;6.760;2022-09-12T02:04:22;10.02;;;9.00;;
70014;SDS011;57358;51.094;6.760;2022-09-12T02:09:55;13.48;;;11.05;;
70014;SDS011;57358;51.094;6.760;2022-09-12T02:12:30;11.90;;;10.07;;
70014;SDS011;57358;51.094;6.760;2022-09-12T02:15:07;9.65;;;8.68;;
70014;SDS011;57358;51.094;6.760;2022-09-12T02:17:37;13.25;;;9.18;;
70014;SDS011;57358;51.094;6.760;2022-09-12T02:20:14;10.38;;;9.43;;
70014;SDS011;57358;51.094;6.760;2022-09-12T02:23:11;10.27;;;9.32;;
70014;SDS011;57358;51.094;6.760;2022-09-12T02:25:42;10.95;;;9.82;;
70014;SDS011;57358;51.094;6.760;2022-09-12T02:28:16;11.43;;;10.25;;
70014;SDS011;57358;51.094;6.760;2022-09-12T02:30:58;11.20;;;10.15;;
70014;SDS011;57358;51.094;6.760;2022-09-12T02:33:36;14.60;;;9.20;;
70014;SDS011;57358;51.094;6.760;2022-09-12T02:39:11;11.18;;;10.23;;
70014;SDS011;57358;51.094;6.760;2022-09-12T02:41:38;12.43;;;10.07;;
70014;SDS011;57358;51.094;6.760;2022-09-12T02:44:04;14.25;;;11.30;;
70014;SDS011;57358;51.094;6.760;2022-09-12T02:46:36;13.43;;;10.57;;
70014;SDS011;57358;51.094;6.760;2022-09-12T02:49:06;12.63;;;10.25;;
70014;SDS011;57358;51.094;6.760;2022-09-12T02:51:34;10.20;;;9.25;;
70014;SDS011;57358;51.094;6.760;2022-09-12T02:54:02;18.40;;;16.60;;
70014;SDS011;57358;51.094;6.760;2022-09-12T02:56:39;13.20;;;9.13;;
70014;SDS011;57358;51.094;6.760;2022-09-12T02:59:07;12.85;;;10.27;;
70014;SDS011;57358;51.094;6.760;2022-09-12T03:01:58;15.73;;;9.98;;
70014;SDS011;57358;51.094;6.760;2022-09-12T03:07:17;30.58;;;14.18;;
70014;SDS011;57358;51.094;6.760;2022-09-12T03:12:55;9.43;;;8.73;;
70014;SDS011;57358;51.094;6.760;2022-09-12T03:18:03;13.18;;;10.63;;
70014;SDS011;57358;51.094;6.760;2022-09-12T03:23:28;9.43;;;8.73;;
70014;SDS011;57358;51.094;6.760;2022-09-12T03:26:05;8.10;;;7.50;;
70014;SDS011;57358;51.094;6.760;2022-09-12T03:28:41;12.20;;;11.00;;
70014;SDS011;57358;51.094;6.760;2022-09-12T03:31:13;12.02;;;10.98;;
70014;SDS011;57358;51.094;6.760;2022-09-12T03:33:40;10.37;;;7.60;;
70014;SDS011;57358;51.094;6.760;2022-09-12T03:36:14;10.43;;;9.43;;
70014;SDS011;57358;51.094;6.760;2022-09-12T03:38:46;8.43;;;7.70;;
70014;SDS011;57358;51.094;6.760;2022-09-12T03:41:12;8.57;;;8.00;;
70014;SDS011;57358;51.094;6.760;2022-09-12T03:43:39;10.50;;;9.40;;
70014;SDS011;57358;51.094;6.760;2022-09-12T03:46:06;9.55;;;8.40;;
70014;SDS011;57358;51.094;6.760;2022-09-12T03:48:33;10.40;;;9.60;;
70014;SDS011;57358;51.094;6.760;2022-09-12T03:51:00;11.02;;;9.77;;
70014;SDS011;57358;51.094;6.760;2022-09-12T03:53:28;9.48;;;8.68;;
70014;SDS011;57358;51.094;6.760;2022-09-12T03:55:56;8.98;;;8.20;;
70014;SDS011;57358;51.094;6.760;2022-09-12T03:58:23;8.27;;;7.40;;
70014;SDS011;57358;51.094;6.760;2022-09-12T04:00:50;9.38;;;8.48;;
70014;SDS011;57358;51.094;6.760;2022-09-12T04:03:17;13.10;;;10.23;;
70014;SDS011;57358;51.094;6.760;2022-09-12T04:05:44;8.98;;;8.07;;
70014;SDS011;57358;51.094;6.760;2022-09-12T04:08:12;9.25;;;8.50;;
70014;SDS011;57358;51.094;6.760;2022-09-12T04:10:40;9.00;;;8.05;;
70014;SDS011;57358;51.094;6.760;2022-09-12T04:13:06;9.68;;;8.73;;
70014;SDS011;57358;51.094;6.760;2022-09-12T04:15:33;9.57;;;8.68;;
70014;SDS011;57358;51.094;6.760;2022-09-12T04:17:59;9.82;;;8.43;;
70014;SDS011;57358;51.094;6.760;2022-09-12T04:20:31;10.93;;;7.90;;
70014;SDS011;57358;51.094;6.760;2022-09-12T04:22:57;8.57;;;7.78;;
70014;SDS011;57358;51.094;6.760;2022-09-12T04:25:24;9.13;;;7.88;;
70014;SDS011;57358;51.094;6.760;2022-09-12T04:27:50;9.20;;;8.30;;
70014;SDS011;57358;51.094;6.760;2022-09-12T04:30:17;9.07;;;8.30;;
70014;SDS011;57358;51.094;6.760;2022-09-12T04:32:43;7.60;;;7.00;;
70014;SDS011;57358;51.094;6.760;2022-09-12T04:35:10;10.50;;;9.40;;
70014;SDS011;57358;51.094;6.760;2022-09-12T04:37:37;9.25;;;8.32;;
70014;SDS011;57358;51.094;6.760;2022-09-12T04:40:04;9.00;;;8.30;;
70014;SDS011;57358;51.094;6.760;2022-09-12T04:42:31;11.75;;;8.15;;
70014;SDS011;57358;51.094;6.760;2022-09-12T04:44:57;7.22;;;6.72;;
70014;SDS011;57358;51.094;6.760;2022-09-12T04:47:24;9.93;;;9.02;;
70014;SDS011;57358;51.094;6.760;2022-09-12T04:49:50;10.63;;;7.90;;
70014;SDS011;57358;51.094;6.760;2022-09-12T04:52:17;10.88;;;8.95;;
70014;SDS011;57358;51.094;6.760;2022-09-12T04:54:44;9.82;;;8.77;;
70014;SDS011;57358;51.094;6.760;2022-09-12T04:57:10;9.25;;;8.48;;
70014;SDS011;57358;51.094;6.760;2022-09-12T04:59:37;9.63;;;8.85;;
70014;SDS011;57358;51.094;6.760;2022-09-12T05:02:06;9.90;;;8.95;;
70014;SDS011;57358;51.094;6.760;2022-09-12T05:04:33;8.82;;;7.82;;
70014;SDS011;57358;51.094;6.760;2022-09-12T05:07:01;8.25;;;7.45;;
70014;SDS011;57358;51.094;6.760;2022-09-12T05:09:28;9.20;;;8.43;;
70014;SDS011;57358;51.094;6.760;2022-09-12T05:11:54;6.93;;;6.32;;
70014;SDS011;57358;51.094;6.760;2022-09-12T05:14:30;9.50;;;8.30;;
70014;SDS011;57358;51.094;6.760;2022-09-12T05:16:58;8.48;;;7.82;;
70014;SDS011;57358;51.094;6.760;2022-09-12T05:19:27;8.55;;;7.85;;
70014;SDS011;57358;51.094;6.760;2022-09-12T05:21:55;8.45;;;7.68;;
70014;SDS011;57358;51.094;6.760;2022-09-12T05:24:21;9.88;;;8.98;;
70014;SDS011;57358;51.094;6.760;2022-09-12T05:26:48;8.82;;;8.15;;
70014;SDS011;57358;51.094;6.760;2022-09-12T05:29:14;11.48;;;10.40;;
70014;SDS011;57358;51.094;6.760;2022-09-12T05:31:40;7.30;;;6.68;;
70014;SDS011;57358;51.094;6.760;2022-09-12T05:34:07;10.60;;;9.27;;
70014;SDS011;57358;51.094;6.760;2022-09-12T05:36:35;7.80;;;7.20;;
70014;SDS011;57358;51.094;6.760;2022-09-12T05:39:02;13.52;;;8.43;;
70014;SDS011;57358;51.094;6.760;2022-09-12T05:41:30;8.18;;;7.57;;
70014;SDS011;57358;51.094;6.760;2022-09-12T05:43:59;8.82;;;8.05;;
70014;SDS011;57358;51.094;6.760;2022-09-12T05:46:29;9.40;;;8.60;;
70014;SDS011;57358;51.094;6.760;2022-09-12T05:49:01;10.05;;;8.75;;
70014;SDS011;57358;51.094;6.760;2022-09-12T05:51:31;8.75;;;7.97;;
70014;SDS011;57358;51.094;6.760;2022-09-12T05:54:00;9.63;;;8.70;;
70014;SDS011;57358;51.094;6.760;2022-09-12T05:56:29;11.93;;;8.05;;
70014;SDS011;57358;51.094;6.760;2022-09-12T05:59:02;9.02;;;8.25;;
70014;SDS011;57358;51.094;6.760;2022-09-12T06:01:31;11.33;;;8.33;;
70014;SDS011;57358;51.094;6.760;2022-09-12T06:03:59;8.18;;;7.38;;
70014;SDS011;57358;51.094;6.760;2022-09-12T06:06:29;8.88;;;8.05;;
70014;SDS011;57358;51.094;6.760;2022-09-12T06:08:58;8.93;;;8.23;;
70014;SDS011;57358;51.094;6.760;2022-09-12T06:11:27;14.57;;;8.93;;
70014;SDS011;57358;51.094;6.760;2022-09-12T06:13:55;9.77;;;8.55;;
70014;SDS011;57358;51.094;6.760;2022-09-12T06:16:24;8.88;;;8.18;;
70014;SDS011;57358;51.094;6.760;2022-09-12T06:18:53;8.80;;;7.78;;
70014;SDS011;57358;51.094;6.760;2022-09-12T06:21:21;10.60;;;9.05;;
70014;SDS011;57358;51.094;6.760;2022-09-12T06:23:49;8.60;;;7.90;;
70014;SDS011;57358;51.094;6.760;2022-09-12T06:26:16;11.30;;;10.23;;
70014;SDS011;57358;51.094;6.760;2022-09-12T06:28:46;11.63;;;8.60;;
70014;SDS011;57358;51.094;6.760;2022-09-12T06:31:14;10.18;;;9.38;;
70014;SDS011;57358;51.094;6.760;2022-09-12T06:33:43;9.25;;;8.45;;
70014;SDS011;57358;51.094;6.760;2022-09-12T06:36:16;10.32;;;9.57;;
70014;SDS011;57358;51.094;6.760;2022-09-12T06:38:44;9.55;;;8.68;;
70014;SDS011;57358;51.094;6.760;2022-09-12T06:41:14;8.32;;;7.63;;
70014;SDS011;57358;51.094;6.760;2022-09-12T06:43:40;8.90;;;8.10;;
70014;SDS011;57358;51.094;6.760;2022-09-12T06:46:08;8.70;;;7.85;;
70014;SDS011;57358;51.094;6.760;2022-09-12T06:48:35;10.77;;;8.35;;
70014;SDS011;57358;51.094;6.760;2022-09-12T06:51:13;9.15;;;8.27;;
70014;SDS011;57358;51.094;6.760;2022-09-12T06:53:42;8.40;;;7.65;;
70014;SDS011;57358;51.094;6.760;2022-09-12T06:56:10;11.75;;;10.13;;
70014;SDS011;57358;51.094;6.760;2022-09-12T06:58:39;9.38;;;8.30;;
70014;SDS011;57358;51.094;6.760;2022-09-12T07:01:11;10.65;;;9.68;;
70014;SDS011;57358;51.094;6.760;2022-09-12T07:03:42;8.75;;;7.78;;
70014;SDS011;57358;51.094;6.760;2022-09-12T07:06:13;10.32;;;9.38;;
70014;SDS011;57358;51.094;6.760;2022-09-12T07:08:41;9.68;;;8.05;;
70014;SDS011;57358;51.094;6.760;2022-09-12T07:11:12;16.58;;;10.07;;
70014;SDS011;57358;51.094;6.760;2022-09-12T07:13:47;8.45;;;7.55;;
70014;SDS011;57358;51.094;6.760;2022-09-12T07:16:15;11.75;;;9.82;;
70014;SDS011;57358;51.094;6.760;2022-09-12T07:18:48;9.07;;;8.07;;
70014;SDS011;57358;51.094;6.760;2022-09-12T07:21:25;9.80;;;8.10;;
70014;SDS011;57358;51.094;6.760;2022-09-12T07:23:52;9.82;;;8.63;;
70014;SDS011;57358;51.094;6.760;2022-09-12T07:26:20;10.13;;;9.25;;
70014;SDS011;57358;51.094;6.760;2022-09-12T07:28:49;12.75;;;8.23;;
70014;SDS011;57358;51.094;6.760;2022-09-12T07:31:19;10.35;;;9.35;;
70014;SDS011;57358;51.094;6.760;2022-09-12T07:33:48;8.70;;;7.60;;
70014;SDS011;57358;51.094;6.760;2022-09-12T07:36:20;8.80;;;8.02;;
70014;SDS011;57358;51.094;6.760;2022-09-12T07:38:52;9.05;;;8.20;;
70014;SDS011;57358;51.094;6.760;2022-09-12T07:41:24;9.20;;;8.27;;
70014;SDS011;57358;51.094;6.760;2022-09-12T07:43:52;12.27;;;7.85;;
70014;SDS011;57358;51.094;6.760;2022-09-12T07:46:20;11.02;;;8.40;;
70014;SDS011;57358;51.094;6.760;2022-09-12T07:48:54;8.82;;;7.93;;
70014;SDS011;57358;51.094;6.760;2022-09-12T07:51:22;8.50;;;7.80;;
70014;SDS011;57358;51.094;6.760;2022-09-12T07:53:50;10.10;;;9.10;;
70014;SDS011;57358;51.094;6.760;2022-09-12T07:56:17;12.23;;;8.90;;
70014;SDS011;57358;51.094;6.760;2022-09-12T07:58:44;9.45;;;8.50;;
70014;SDS011;57358;51.094;6.760;2022-09-12T08:01:15;11.93;;;9.98;;
70014;SDS011;57358;51.094;6.760;2022-09-12T08:03:43;8.80;;;8.00;;
70014;SDS011;57358;51.094;6.760;2022-09-12T08:06:13;11.27;;;10.20;;
70014;SDS011;57358;51.094;6.760;2022-09-12T08:08:41;10.43;;;7.90;;
70014;SDS011;57358;51.094;6.760;2022-09-12T08:11:09;11.00;;;9.95;;
70014;SDS011;57358;51.094;6.760;2022-09-12T08:13:37;8.90;;;8.00;;
70014;SDS011;57358;51.094;6.760;2022-09-12T08:16:12;9.07;;;8.13;;
70014;SDS011;57358;51.094;6.760;2022-09-12T08:18:43;11.95;;;8.80;;
70014;SDS011;57358;51.094;6.760;2022-09-12T08:21:17;9.95;;;8.95;;
70014;SDS011;57358;51.094;6.760;2022-09-12T08:23:46;10.35;;;7.88;;
70014;SDS011;57358;51.094;6.760;2022-09-12T08:26:16;10.32;;;9.43;;
70014;SDS011;57358;51.094;6.760;2022-09-12T08:28:44;8.65;;;7.85;;
70014;SDS011;57358;51.094;6.760;2022-09-12T08:31:15;10.07;;;9.18;;
70014;SDS011;57358;51.094;6.760;2022-09-12T08:33:43;8.07;;;7.40;;
70014;SDS011;57358;51.094;6.760;2022-09-12T08:38:39;12.25;;;7.28;;
70014;SDS011;57358;51.094;6.760;2022-09-12T08:41:18;9.48;;;8.65;;
70014;SDS011;57358;51.094;6.760;2022-09-12T08:49:14;9.18;;;8.32;;
70014;SDS011;57358;51.094;6.760;2022-09-12T08:51:52;10.30;;;7.50;;
70014;SDS011;57358;51.094;6.760;2022-09-12T08:54:24;8.45;;;7.75;;
70014;SDS011;57358;51.094;6.760;2022-09-12T08:56:57;8.23;;;7.30;;
70014;SDS011;57358;51.094;6.760;2022-09-12T08:59:33;8.20;;;7.40;;
70014;SDS011;57358;51.094;6.760;2022-09-12T09:02:03;7.93;;;7.18;;
70014;SDS011;57358;51.094;6.760;2022-09-12T09:10:58;8.50;;;7.80;;
70014;SDS011;57358;51.094;6.760;2022-09-12T09:16:56;7.15;;;6.45;;
70014;SDS011;57358;51.094;6.760;2022-09-12T09:19:33;7.78;;;7.15;;
70014;SDS011;57358;51.094;6.760;2022-09-12T09:22:11;9.10;;;8.15;;
70014;SDS011;57358;51.094;6.760;2022-09-12T09:24:48;7.72;;;7.10;;
70014;SDS011;57358;51.094;6.760;2022-09-12T09:27:25;7.95;;;7.15;;
70014;SDS011;57358;51.094;6.760;2022-09-12T09:30:11;8.57;;;7.78;;
70014;SDS011;57358;51.094;6.760;2022-09-12T09:32:43;8.13;;;7.43;;
70014;SDS011;57358;51.094;6.760;2022-09-12T09:35:17;9.68;;;8.77;;
70014;SDS011;57358;51.094;6.760;2022-09-12T09:40:28;7.13;;;6.53;;
70014;SDS011;57358;51.094;6.760;2022-09-12T09:43:19;7.78;;;7.28;;
70014;SDS011;57358;51.094;6.760;2022-09-12T09:45:52;7.97;;;7.28;;
70014;SDS011;57358;51.094;6.760;2022-09-12T09:48:23;7.35;;;6.80;;
70014;SDS011;57358;51.094;6.760;2022-09-12T09:50:55;8.23;;;7.53;;
70014;SDS011;57358;51.094;6.760;2022-09-12T10:01:46;7.20;;;6.60;;
70014;SDS011;57358;51.094;6.760;2022-09-12T10:04:20;8.30;;;7.50;;
70014;SDS011;57358;51.094;6.760;2022-09-12T10:06:56;7.10;;;6.60;;
70014;SDS011;57358;51.094;6.760;2022-09-12T10:09:25;7.32;;;6.78;;
70014;SDS011;57358;51.094;6.760;2022-09-12T10:11:54;7.30;;;6.80;;
70014;SDS011;57358;51.094;6.760;2022-09-12T10:14:32;7.90;;;7.30;;
70014;SDS011;57358;51.094;6.760;2022-09-12T10:17:48;7.13;;;6.63;;
70014;SDS011;57358;51.094;6.760;2022-09-12T10:20:05;7.32;;;6.93;;
70014;SDS011;57358;51.094;6.760;2022-09-12T10:22:59;7.63;;;7.07;;
70014;SDS011;57358;51.094;6.760;2022-09-12T10:25:55;7.63;;;7.13;;
70014;SDS011;57358;51.094;6.760;2022-09-12T10:28:34;7.72;;;7.22;;
70014;SDS011;57358;51.094;6.760;2022-09-12T10:31:04;8.10;;;7.22;;
70014;SDS011;57358;51.094;6.760;2022-09-12T10:33:43;7.20;;;6.60;;
70014;SDS011;57358;51.094;6.760;2022-09-12T10:36:18;9.35;;;8.55;;
70014;SDS011;57358;51.094;6.760;2022-09-12T10:38:55;7.05;;;6.55;;
70014;SDS011;57358;51.094;6.760;2022-09-12T10:41:33;7.32;;;6.82;;
70014;SDS011;57358;51.094;6.760;2022-09-12T10:44:06;7.03;;;6.53;;
70014;SDS011;57358;51.094;6.760;2022-09-12T10:46:39;6.93;;;6.53;;
70014;SDS011;57358;51.094;6.760;2022-09-12T10:49:13;7.00;;;6.57;;
70014;SDS011;57358;51.094;6.760;2022-09-12T10:51:48;6.53;;;6.13;;
70014;SDS011;57358;51.094;6.760;2022-09-12T10:54:17;7.18;;;6.53;;
70014;SDS011;57358;51.094;6.760;2022-09-12T10:59:24;7.32;;;6.93;;
70014;SDS011;57358;51.094;6.760;2022-09-12T11:02:11;7.15;;;6.53;;
70014;SDS011;57358;51.094;6.760;2022-09-12T11:10:09;6.97;;;6.57;;
70014;SDS011;57358;51.094;6.760;2022-09-12T11:12:55;6.90;;;6.50;;
70014;SDS011;57358;51.094;6.760;2022-09-12T11:24:44;7.50;;;7.00;;
70014;SDS011;57358;51.094;6.760;2022-09-12T11:29:39;7.22;;;6.78;;
70014;SDS011;57358;51.094;6.760;2022-09-12T11:43:27;6.90;;;6.40;;
70014;SDS011;57358;51.094;6.760;2022-09-12T11:46:01;6.88;;;6.47;;
70014;SDS011;57358;51.094;6.760;2022-09-12T11:48:54;7.10;;;6.70;;
70014;SDS011;57358;51.094;6.760;2022-09-12T11:51:26;6.57;;;6.18;;
70014;SDS011;57358;51.094;6.760;2022-09-12T11:54:02;6.78;;;6.28;;
70014;SDS011;57358;51.094;6.760;2022-09-12T11:56:37;6.82;;;6.32;;
70014;SDS011;57358;51.094;6.760;2022-09-12T11:59:14;8.00;;;7.55;;
70014;SDS011;57358;51.094;6.760;2022-09-12T12:01:52;6.70;;;6.30;;
70014;SDS011;57358;51.094;6.760;2022-09-12T12:04:26;7.35;;;6.70;;
70014;SDS011;57358;51.094;6.760;2022-09-12T12:07:06;6.80;;;6.40;;
70014;SDS011;57358;51.094;6.760;2022-09-12T12:09:47;6.82;;;6.43;;
70014;SDS011;57358;51.094;6.760;2022-09-12T12:12:18;7.10;;;6.70;;
70014;SDS011;57358;51.094;6.760;2022-09-12T12:14:49;7.15;;;6.65;;
70014;SDS011;57358;51.094;6.760;2022-09-12T12:17:19;8.07;;;7.57;;
70014;SDS011;57358;51.094;6.760;2022-09-12T12:19:55;6.90;;;6.47;;
70014;SDS011;57358;51.094;6.760;2022-09-12T12:22:31;6.95;;;6.43;;
70014;SDS011;57358;51.094;6.760;2022-09-12T12:25:02;6.90;;;6.40;;
70014;SDS011;57358;51.094;6.760;2022-09-12T12:27:48;6.47;;;6.13;;
70014;SDS011;57358;51.094;6.760;2022-09-12T12:33:00;6.72;;;6.32;;
70014;SDS011;57358;51.094;6.760;2022-09-12T12:35:42;6.75;;;6.35;;
70014;SDS011;57358;51.094;6.760;2022-09-12T12:38:34;6.43;;;6.13;;
70014;SDS011;57358;51.094;6.760;2022-09-12T12:43:42;7.28;;;6.78;;
70014;SDS011;57358;51.094;6.760;2022-09-12T12:46:12;7.70;;;7.30;;
70014;SDS011;57358;51.094;6.760;2022-09-12T12:48:48;6.65;;;6.25;;
70014;SDS011;57358;51.094;6.760;2022-09-12T12:51:36;6.72;;;6.32;;
70014;SDS011;57358;51.094;6.760;2022-09-12T12:54:30;8.60;;;8.05;;
70014;SDS011;57358;51.094;6.760;2022-09-12T12:57:24;7.82;;;7.32;;
70014;SDS011;57358;51.094;6.760;2022-09-12T12:59:55;7.10;;;6.70;;
70014;SDS011;57358;51.094;6.760;2022-09-12T13:02:27;6.47;;;6.07;;
70014;SDS011;57358;51.094;6.760;2022-09-12T13:04:58;7.07;;;6.60;;
70014;SDS011;57358;51.094;6.760;2022-09-12T13:07:35;6.47;;;6.13;;
70014;SDS011;57358;51.094;6.760;2022-09-12T13:10:05;6.50;;;6.10;;
70014;SDS011;57358;51.094;6.760;2022-09-12T13:12:34;6.60;;;6.20;;
70014;SDS011;57358;51.094;6.760;2022-09-12T13:15:03;6.38;;;5.97;;
70014;SDS011;57358;51.094;6.760;2022-09-12T13:17:50;6.45;;;6.10;;
70014;SDS011;57358;51.094;6.760;2022-09-12T13:20:18;7.28;;;6.88;;
70014;SDS011;57358;51.094;6.760;2022-09-12T13:22:55;6.88;;;6.47;;
70014;SDS011;57358;51.094;6.760;2022-09-12T13:27:57;7.20;;;6.70;;
70014;SDS011;57358;51.094;6.760;2022-09-12T13:30:26;6.85;;;6.35;;
70014;SDS011;57358;51.094;6.760;2022-09-12T13:32:56;6.75;;;6.35;;
70014;SDS011;57358;51.094;6.760;2022-09-12T13:35:33;6.47;;;6.05;;
70014;SDS011;57358;51.094;6.760;2022-09-12T13:43:41;6.70;;;6.30;;
70014;SDS011;57358;51.094;6.760;2022-09-12T13:46:12;7.93;;;7.43;;
70014;SDS011;57358;51.094;6.760;2022-09-12T13:48:42;6.90;;;6.50;;
70014;SDS011;57358;51.094;6.760;2022-09-12T13:51:18;7.30;;;6.90;;
70014;SDS011;57358;51.094;6.760;2022-09-12T13:53:48;6.63;;;6.22;;
70014;SDS011;57358;51.094;6.760;2022-09-12T13:56:17;8.07;;;7.47;;
70014;SDS011;57358;51.094;6.760;2022-09-12T13:58:55;7.00;;;6.53;;
70014;SDS011;57358;51.094;6.760;2022-09-12T14:01:23;7.60;;;7.00;;
70014;SDS011;57358;51.094;6.760;2022-09-12T14:04:06;6.60;;;6.20;;
70014;SDS011;57358;51.094;6.760;2022-09-12T14:06:59;6.90;;;6.43;;
70014;SDS011;57358;51.094;6.760;2022-09-12T14:09:31;7.03;;;6.63;;
70014;SDS011;57358;51.094;6.760;2022-09-12T14:12:04;6.88;;;6.47;;
70014;SDS011;57358;51.094;6.760;2022-09-12T14:14:46;6.95;;;6.55;;
70014;SDS011;57358;51.094;6.760;2022-09-12T14:17:23;7.10;;;6.30;;
70014;SDS011;57358;51.094;6.760;2022-09-12T14:19:54;7.30;;;6.80;;
70014;SDS011;57358;51.094;6.760;2022-09-12T14:22:24;6.95;;;6.53;;
70014;SDS011;57358;51.094;6.760;2022-09-12T14:24:55;8.93;;;8.43;;
70014;SDS011;57358;51.094;6.760;2022-09-12T14:27:24;7.15;;;6.40;;
70014;SDS011;57358;51.094;6.760;2022-09-12T14:29:56;8.60;;;8.05;;
70014;SDS011;57358;51.094;6.760;2022-09-12T14:32:28;7.00;;;6.60;;
70014;SDS011;57358;51.094;6.760;2022-09-12T14:37:50;6.72;;;6.32;;
70014;SDS011;57358;51.094;6.760;2022-09-12T14:40:18;8.23;;;7.72;;
70014;SDS011;57358;51.094;6.760;2022-09-12T14:42:46;6.72;;;6.32;;
70014;SDS011;57358;51.094;6.760;2022-09-12T14:45:17;7.97;;;7.47;;
70014;SDS011;57358;51.094;6.760;2022-09-12T14:47:53;6.53;;;6.13;;
70014;SDS011;57358;51.094;6.760;2022-09-12T14:50:25;6.80;;;6.47;;
70014;SDS011;57358;51.094;6.760;2022-09-12T14:53:01;7.03;;;6.53;;
70014;SDS011;57358;51.094;6.760;2022-09-12T14:55:33;8.05;;;7.55;;
70014;SDS011;57358;51.094;6.760;2022-09-12T15:03:49;7.03;;;6.50;;
70014;SDS011;57358;51.094;6.760;2022-09-12T15:08:54;7.03;;;6.63;;
70014;SDS011;57358;51.094;6.760;2022-09-12T15:11:22;6.90;;;6.50;;
70014;SDS011;57358;51.094;6.760;2022-09-12T15:13:49;7.13;;;6.72;;
70014;SDS011;57358;51.094;6.760;2022-09-12T15:16:15;7.35;;;6.85;;
70014;SDS011;57358;51.094;6.760;2022-09-12T15:18:42;7.53;;;7.13;;
70014;SDS011;57358;51.094;6.760;2022-09-12T15:21:11;6.50;;;6.10;;
70014;SDS011;57358;51.094;6.760;2022-09-12T15:23:45;7.70;;;7.30;;
70014;SDS011;57358;51.094;6.760;2022-09-12T15:26:17;7.43;;;7.03;;
70014;SDS011;57358;51.094;6.760;2022-09-12T15:28:44;7.03;;;6.63;;
70014;SDS011;57358;51.094;6.760;2022-09-12T15:31:18;6.88;;;6.43;;
70014;SDS011;57358;51.094;6.760;2022-09-12T15:33:49;6.70;;;6.30;;
70014;SDS011;57358;51.094;6.760;2022-09-12T15:36:17;6.63;;;6.22;;
70014;SDS011;57358;51.094;6.760;2022-09-12T15:38:46;7.15;;;6.75;;
70014;SDS011;57358;51.094;6.760;2022-09-12T15:41:20;6.40;;;6.10;;
70014;SDS011;57358;51.094;6.760;2022-09-12T15:43:55;6.32;;;5.93;;
70014;SDS011;57358;51.094;6.760;2022-09-12T15:46:22;6.88;;;6.47;;
70014;SDS011;57358;51.094;6.760;2022-09-12T15:48:48;6.28;;;5.97;;
70014;SDS011;57358;51.094;6.760;2022-09-12T15:51:19;6.85;;;6.45;;
70014;SDS011;57358;51.094;6.760;2022-09-12T15:53:47;7.20;;;6.60;;
70014;SDS011;57358;51.094;6.760;2022-09-12T15:56:15;6.90;;;6.40;;
70014;SDS011;57358;51.094;6.760;2022-09-12T15:58:42;7.32;;;6.82;;
70014;SDS011;57358;51.094;6.760;2022-09-12T16:01:23;6.63;;;6.22;;
70014;SDS011;57358;51.094;6.760;2022-09-12T16:03:50;6.68;;;6.30;;
70014;SDS011;57358;51.094;6.760;2022-09-12T16:06:17;6.65;;;6.25;;
70014;SDS011;57358;51.094;6.760;2022-09-12T16:08:43;7.00;;;6.60;;
70014;SDS011;57358;51.094;6.760;2022-09-12T16:11:11;6.60;;;6.22;;
70014;SDS011;57358;51.094;6.760;2022-09-12T16:13:44;6.88;;;6.47;;
70014;SDS011;57358;51.094;6.760;2022-09-12T16:16:11;7.03;;;6.53;;
70014;SDS011;57358;51.094;6.760;2022-09-12T16:18:40;7.97;;;7.57;;
70014;SDS011;57358;51.094;6.760;2022-09-12T16:21:07;6.63;;;6.22;;
70014;SDS011;57358;51.094;6.760;2022-09-12T16:23:43;8.13;;;7.38;;
70014;SDS011;57358;51.094;6.760;2022-09-12T16:26:10;6.88;;;6.47;;
70014;SDS011;57358;51.094;6.760;2022-09-12T16:28:37;7.40;;;7.00;;
70014;SDS011;57358;51.094;6.760;2022-09-12T16:31:04;6.30;;;5.97;;
70014;SDS011;57358;51.094;6.760;2022-09-12T16:33:32;8.02;;;7.53;;
70014;SDS011;57358;51.094;6.760;2022-09-12T16:36:09;6.50;;;6.10;;
70014;SDS011;57358;51.094;6.760;2022-09-12T16:38:41;7.50;;;7.05;;
70014;SDS011;57358;51.094;6.760;2022-09-12T16:41:08;6.68;;;6.28;;
70014;SDS011;57358;51.094;6.760;2022-09-12T16:43:35;8.13;;;7.63;;
70014;SDS011;57358;51.094;6.760;2022-09-12T16:48:37;7.97;;;7.47;;
70014;SDS011;57358;51.094;6.760;2022-09-12T16:51:07;6.60;;;6.20;;
70014;SDS011;57358;51.094;6.760;2022-09-12T16:53:34;7.70;;;7.20;;
70014;SDS011;57358;51.094;6.760;2022-09-12T16:56:02;6.82;;;6.43;;
70014;SDS011;57358;51.094;6.760;2022-09-12T16:58:36;7.57;;;7.07;;
70014;SDS011;57358;51.094;6.760;2022-09-12T17:01:14;6.80;;;6.30;;
70014;SDS011;57358;51.094;6.760;2022-09-12T17:03:43;7.80;;;7.30;;
70014;SDS011;57358;51.094;6.760;2022-09-12T17:06:10;7.10;;;6.50;;